Juergen K — PBKV — position and weather

sailwx.info

Track history (hours):
 
Tides and Currents Weather Stations Pressure Air Temp Water Temp Dewpoint Dewpoint Depression Visibility Wind Speed Wind Dir Waves Ship Positions

Juergen K

Last reported at 2016-Aug-25 14:33 UTC. Time now 2016-Aug-25 14:58 UTC.
Position N 38°52' W 010°07'.

Length 89 m; draft 5.2 m.

Type: Cargo ship. MMSI: 244329000.

Date/timePositionNaut miles runAvg speedWind from/ knotsBaromVisibWave heightAir tempDewpointWater temp
2016-Aug-25 14:33N 38°52' W 010°07'1110.8
2016-Aug-25 13:33N 39°03' W 010°07'1111.0
2016-Aug-25 12:33N 39°14' W 010°06'1010.3
2016-Aug-25 11:33N 39°24' W 010°06'2310.2
2016-Aug-25 09:21N 39°47' W 010°06'3010.4
2016-Aug-25 06:26N 40°17' W 010°06'  
2016-Aug-23 01:33N 48°14' W 006°19'1110.9
2016-Aug-23 00:33N 48°23' W 006°11'1111.0
2016-Aug-22 23:34N 48°33' W 006°03'1110.7
2016-Aug-22 22:34N 48°42' W 005°55'10 9.8
2016-Aug-22 21:33N 48°51' W 005°48'8 8.3
2016-Aug-22 20:34N 48°56' W 005°38'8 7.8
2016-Aug-22 19:34N 48°60' W 005°28'7 7.1
2016-Aug-22 18:33N 49°03' W 005°18'56 9.0
2016-Aug-22 12:22N 49°31' W 004°04'8 9.4
2016-Aug-22 11:27N 49°36' W 003°53'8 8.5
2016-Aug-22 10:33N 49°40' W 003°43'9 7.4
2016-Aug-22 09:24N 49°44' W 003°32'7 7.0
2016-Aug-22 08:22N 49°48' W 003°22'6 7.2
2016-Aug-22 07:30N 49°51' W 003°13'8 8.6
2016-Aug-22 06:33N 49°55' W 003°03'10 9.6
2016-Aug-22 05:33N 49°59' W 002°49'1311.4
2016-Aug-22 04:25N 50°02' W 002°29'1112.7
2016-Aug-22 03:31N 50°06' W 002°12'1412.3
2016-Aug-22 02:20N 50°10' W 001°51'910.0
2016-Aug-22 01:27N 50°13' W 001°38'9 7.8
2016-Aug-22 00:19N 50°15' W 001°24'5 6.0
2016-Aug-21 23:33N 50°16' W 001°17'5 4.8
2016-Aug-21 22:30N 50°18' W 001°10'36 7.3
2016-Aug-21 17:33N 50°28' W 000°15'10 9.6
2016-Aug-21 16:33N 50°31' W 000°01'9 9.3
2016-Aug-21 15:33N 50°34' E 000°13'46 7.6
2016-Aug-21 09:33N 50°58' E 001°15'1110.9
2016-Aug-21 08:33N 51°05' E 001°28'1010.4
2016-Aug-21 07:34N 51°11' E 001°41'9 9.5
2016-Aug-21 06:33N 51°19' E 001°50'8 8.1
2016-Aug-21 05:34N 51°26' E 001°56'7 6.9
2016-Aug-21 04:33N 51°32' E 002°03'6 5.6
2016-Aug-21 03:33N 51°36' E 002°09'5 4.3
2016-Aug-21 02:25N 51°39' E 002°14'155 6.2
2016-Aug-20 01:11N 53°35' E 005°05'610.3
2016-Aug-20 00:33N 53°37' E 005°15'1110.3
2016-Aug-19 23:32N 53°40' E 005°32'10 9.7
2016-Aug-19 22:33N 53°43' E 005°48'9 8.7
2016-Aug-19 21:34N 53°46' E 006°01'9 8.6
2016-Aug-19 20:33N 53°49' E 006°15'9 8.8
2016-Aug-19 19:33N 53°51' E 006°30'10 9.5
2016-Aug-19 18:32N 53°54' E 006°46'1010.7
2016-Aug-19 17:33N 53°56' E 007°03'1211.5
2016-Aug-19 16:33N 53°59' E 007°22'1211.6
2016-Aug-19 15:33N 54°02' E 007°41'1211.6
2016-Aug-19 14:33N 54°01' E 008°00'1211.6
2016-Aug-19 13:32N 54°00' E 008°21'1210.2
2016-Aug-19 12:23N 53°56' E 008°40'7 8.3
2016-Aug-19 11:33N 53°51' E 008°46'8 8.0
2016-Aug-19 10:33N 53°51' E 008°60'9 8.8
2016-Aug-19 09:33N 53°53' E 009°14'1211.6
2016-Aug-19 08:34N 53°44' E 009°27'1212.0
2016-Aug-19 07:34N 53°34' E 009°39'1110.6
2016-Aug-19 06:33N 53°31' E 009°56'0 0.3
2016-Aug-19 05:33N 53°31' E 009°57'0 0.0
2016-Aug-19 04:30N 53°31' E 009°57'0 0.0
2016-Aug-19 03:30N 53°31' E 009°57'0 0.0
2016-Aug-19 02:33N 53°31' E 009°57'0 0.0
2016-Aug-19 01:33N 53°31' E 009°57'0 0.0
2016-Aug-19 00:33N 53°31' E 009°57'0 0.0
2016-Aug-18 23:30N 53°31' E 009°57'0 0.0
2016-Aug-18 22:33N 53°31' E 009°57'0 0.0
2016-Aug-18 21:30N 53°31' E 009°57'0 0.1
2016-Aug-18 20:33N 53°31' E 009°57'0 0.0
2016-Aug-18 19:33N 53°31' E 009°57'0 0.0
2016-Aug-18 18:30N 53°31' E 009°57'0 0.0
2016-Aug-18 17:33N 53°31' E 009°57'0 0.0
2016-Aug-18 16:33N 53°31' E 009°57'0 0.0
2016-Aug-18 15:33N 53°31' E 009°57'0 0.0
2016-Aug-18 14:33N 53°31' E 009°57'0 0.0
2016-Aug-18 13:33N 53°31' E 009°57'0 0.0
2016-Aug-18 12:33N 53°31' E 009°57'0 0.0
2016-Aug-18 11:33N 53°31' E 009°57'0 0.0
2016-Aug-18 10:30N 53°31' E 009°57'0 0.0
2016-Aug-18 09:33N 53°31' E 009°57'0 0.0
2016-Aug-18 08:27N 53°31' E 009°57'0 0.0
2016-Aug-18 07:33N 53°31' E 009°57'0 0.0
2016-Aug-18 06:33N 53°31' E 009°57'0 0.0
2016-Aug-18 05:33N 53°31' E 009°57'0 0.0
2016-Aug-18 04:30N 53°31' E 009°57'0 0.0
2016-Aug-18 03:33N 53°31' E 009°57'0 0.0
2016-Aug-18 02:33N 53°31' E 009°57'0 0.0
2016-Aug-18 01:33N 53°31' E 009°57'0 0.0
2016-Aug-18 00:33N 53°31' E 009°57'0 0.0
2016-Aug-17 23:33N 53°31' E 009°57'0 0.0
2016-Aug-17 22:33N 53°31' E 009°57'0 0.0
2016-Aug-17 21:33N 53°31' E 009°57'0 0.1
2016-Aug-17 20:33N 53°31' E 009°57'0 0.0
2016-Aug-17 19:33N 53°31' E 009°57'0 0.0
2016-Aug-17 18:33N 53°31' E 009°57'0 0.0
2016-Aug-17 17:33N 53°31' E 009°57'0 0.0
2016-Aug-17 16:33N 53°31' E 009°57'0 0.0
2016-Aug-17 15:33N 53°31' E 009°57'1 1.0
2016-Aug-17 14:33N 53°32' E 009°58'0 0.0
2016-Aug-17 13:33N 53°32' E 009°58'0 0.0
2016-Aug-17 12:33N 53°32' E 009°58'0 0.0
2016-Aug-17 11:33N 53°32' E 009°58'0 0.0
2016-Aug-17 10:33N 53°32' E 009°58'0 0.0
2016-Aug-17 09:33N 53°32' E 009°58'0 0.0
2016-Aug-17 08:33N 53°32' E 009°58'3 2.9
2016-Aug-17 07:33N 53°33' E 009°53'9 8.7
2016-Aug-17 06:33N 53°34' E 009°38'9 9.0
2016-Aug-17 05:34N 53°42' E 009°30'9 8.7
2016-Aug-17 04:33N 53°49' E 009°22'8 8.0
2016-Aug-17 03:33N 53°53' E 009°10'1 1.4
2016-Aug-17 02:33N 53°54' E 009°10'8 8.4
2016-Aug-17 01:33N 54°01' E 009°18'29 7.0
2016-Aug-16 21:20N 54°21' E 009°55'6 7.2
2016-Aug-16 20:33N 54°22' E 010°05'2 2.2
2016-Aug-16 19:33N 54°22' E 010°08'1 1.2
2016-Aug-16 18:33N 54°22' E 010°10'9 9.4
2016-Aug-16 17:33N 54°30' E 010°19'1211.6
2016-Aug-16 16:30N 54°35' E 010°39'1111.7
2016-Aug-16 15:33N 54°36' E 010°58'1111.3
2016-Aug-16 14:33N 54°34' E 011°17'1211.7
2016-Aug-16 13:33N 54°30' E 011°36'1111.4
2016-Aug-16 12:33N 54°27' E 011°55'10 9.9
2016-Aug-16 11:33N 54°30' E 012°11'1210.4
2016-Aug-16 10:23N 54°40' E 012°23'1210.8
2016-Aug-16 09:17N 54°46' E 012°40'810.6
2016-Aug-16 08:33N 54°47' E 012°54'1110.9
2016-Aug-16 07:33N 54°47' E 013°12'1111.0
2016-Aug-16 06:33N 54°47' E 013°31'2210.9
2016-Aug-16 04:33N 54°43' E 014°09'2210.7
2016-Aug-16 02:30N 54°42' E 014°46'1211.0
2016-Aug-16 01:24N 54°44' E 015°07'  
Track history (hours):
 
Tides and Currents Weather Stations Pressure Air Temp Water Temp Dewpoint Dewpoint Depression Visibility Wind Speed Wind Dir Waves Ship Positions

Juergen K

Last reported at 2016-Aug-25 14:33 UTC. Time now 2016-Aug-25 14:58 UTC.
Position N 38°52' W 010°07'.

Length 89 m; draft 5.2 m.

Type: Cargo ship. MMSI: 244329000.

Date/timePositionNaut miles runAvg speedWind from/ knotsBaromVisibWave heightAir tempDewpointWater temp
2016-Aug-25 14:33N 38°52' W 010°07'1110.8
2016-Aug-25 13:33N 39°03' W 010°07'1111.0
2016-Aug-25 12:33N 39°14' W 010°06'1010.3
2016-Aug-25 11:33N 39°24' W 010°06'2310.2
2016-Aug-25 09:21N 39°47' W 010°06'3010.4
2016-Aug-25 06:26N 40°17' W 010°06'  
2016-Aug-23 01:33N 48°14' W 006°19'1110.9
2016-Aug-23 00:33N 48°23' W 006°11'1111.0
2016-Aug-22 23:34N 48°33' W 006°03'1110.7
2016-Aug-22 22:34N 48°42' W 005°55'10 9.8
2016-Aug-22 21:33N 48°51' W 005°48'8 8.3
2016-Aug-22 20:34N 48°56' W 005°38'8 7.8
2016-Aug-22 19:34N 48°60' W 005°28'7 7.1
2016-Aug-22 18:33N 49°03' W 005°18'56 9.0
2016-Aug-22 12:22N 49°31' W 004°04'8 9.4
2016-Aug-22 11:27N 49°36' W 003°53'8 8.5
2016-Aug-22 10:33N 49°40' W 003°43'9 7.4
2016-Aug-22 09:24N 49°44' W 003°32'7 7.0
2016-Aug-22 08:22N 49°48' W 003°22'6 7.2
2016-Aug-22 07:30N 49°51' W 003°13'8 8.6
2016-Aug-22 06:33N 49°55' W 003°03'10 9.6
2016-Aug-22 05:33N 49°59' W 002°49'1311.4
2016-Aug-22 04:25N 50°02' W 002°29'1112.7
2016-Aug-22 03:31N 50°06' W 002°12'1412.3
2016-Aug-22 02:20N 50°10' W 001°51'910.0
2016-Aug-22 01:27N 50°13' W 001°38'9 7.8
2016-Aug-22 00:19N 50°15' W 001°24'5 6.0
2016-Aug-21 23:33N 50°16' W 001°17'5 4.8
2016-Aug-21 22:30N 50°18' W 001°10'36 7.3
2016-Aug-21 17:33N 50°28' W 000°15'10 9.6
2016-Aug-21 16:33N 50°31' W 000°01'9 9.3
2016-Aug-21 15:33N 50°34' E 000°13'46 7.6
2016-Aug-21 09:33N 50°58' E 001°15'1110.9
2016-Aug-21 08:33N 51°05' E 001°28'1010.4
2016-Aug-21 07:34N 51°11' E 001°41'9 9.5
2016-Aug-21 06:33N 51°19' E 001°50'8 8.1
2016-Aug-21 05:34N 51°26' E 001°56'7 6.9
2016-Aug-21 04:33N 51°32' E 002°03'6 5.6
2016-Aug-21 03:33N 51°36' E 002°09'5 4.3
2016-Aug-21 02:25N 51°39' E 002°14'155 6.2
2016-Aug-20 01:11N 53°35' E 005°05'610.3
2016-Aug-20 00:33N 53°37' E 005°15'1110.3
2016-Aug-19 23:32N 53°40' E 005°32'10 9.7
2016-Aug-19 22:33N 53°43' E 005°48'9 8.7
2016-Aug-19 21:34N 53°46' E 006°01'9 8.6
2016-Aug-19 20:33N 53°49' E 006°15'9 8.8
2016-Aug-19 19:33N 53°51' E 006°30'10 9.5
2016-Aug-19 18:32N 53°54' E 006°46'1010.7
2016-Aug-19 17:33N 53°56' E 007°03'1211.5
2016-Aug-19 16:33N 53°59' E 007°22'1211.6
2016-Aug-19 15:33N 54°02' E 007°41'1211.6
2016-Aug-19 14:33N 54°01' E 008°00'1211.6
2016-Aug-19 13:32N 54°00' E 008°21'1210.2
2016-Aug-19 12:23N 53°56' E 008°40'7 8.3
2016-Aug-19 11:33N 53°51' E 008°46'8 8.0
2016-Aug-19 10:33N 53°51' E 008°60'9 8.8
2016-Aug-19 09:33N 53°53' E 009°14'1211.6
2016-Aug-19 08:34N 53°44' E 009°27'1212.0
2016-Aug-19 07:34N 53°34' E 009°39'1110.6
2016-Aug-19 06:33N 53°31' E 009°56'0 0.3
2016-Aug-19 05:33N 53°31' E 009°57'0 0.0
2016-Aug-19 04:30N 53°31' E 009°57'0 0.0
2016-Aug-19 03:30N 53°31' E 009°57'0 0.0
2016-Aug-19 02:33N 53°31' E 009°57'0 0.0
2016-Aug-19 01:33N 53°31' E 009°57'0 0.0
2016-Aug-19 00:33N 53°31' E 009°57'0 0.0
2016-Aug-18 23:30N 53°31' E 009°57'0 0.0
2016-Aug-18 22:33N 53°31' E 009°57'0 0.0
2016-Aug-18 21:30N 53°31' E 009°57'0 0.1
2016-Aug-18 20:33N 53°31' E 009°57'0 0.0
2016-Aug-18 19:33N 53°31' E 009°57'0 0.0
2016-Aug-18 18:30N 53°31' E 009°57'0 0.0
2016-Aug-18 17:33N 53°31' E 009°57'0 0.0
2016-Aug-18 16:33N 53°31' E 009°57'0 0.0
2016-Aug-18 15:33N 53°31' E 009°57'0 0.0
2016-Aug-18 14:33N 53°31' E 009°57'0 0.0
2016-Aug-18 13:33N 53°31' E 009°57'0 0.0
2016-Aug-18 12:33N 53°31' E 009°57'0 0.0
2016-Aug-18 11:33N 53°31' E 009°57'0 0.0
2016-Aug-18 10:30N 53°31' E 009°57'0 0.0
2016-Aug-18 09:33N 53°31' E 009°57'0 0.0
2016-Aug-18 08:27N 53°31' E 009°57'0 0.0
2016-Aug-18 07:33N 53°31' E 009°57'0 0.0
2016-Aug-18 06:33N 53°31' E 009°57'0 0.0
2016-Aug-18 05:33N 53°31' E 009°57'0 0.0
2016-Aug-18 04:30N 53°31' E 009°57'0 0.0
2016-Aug-18 03:33N 53°31' E 009°57'0 0.0
2016-Aug-18 02:33N 53°31' E 009°57'0 0.0
2016-Aug-18 01:33N 53°31' E 009°57'0 0.0
2016-Aug-18 00:33N 53°31' E 009°57'0 0.0
2016-Aug-17 23:33N 53°31' E 009°57'0 0.0
2016-Aug-17 22:33N 53°31' E 009°57'0 0.0
2016-Aug-17 21:33N 53°31' E 009°57'0 0.1
2016-Aug-17 20:33N 53°31' E 009°57'0 0.0
2016-Aug-17 19:33N 53°31' E 009°57'0 0.0
2016-Aug-17 18:33N 53°31' E 009°57'0 0.0
2016-Aug-17 17:33N 53°31' E 009°57'0 0.0
2016-Aug-17 16:33N 53°31' E 009°57'0 0.0
2016-Aug-17 15:33N 53°31' E 009°57'1 1.0
2016-Aug-17 14:33N 53°32' E 009°58'0 0.0
2016-Aug-17 13:33N 53°32' E 009°58'0 0.0
2016-Aug-17 12:33N 53°32' E 009°58'0 0.0
2016-Aug-17 11:33N 53°32' E 009°58'0 0.0
2016-Aug-17 10:33N 53°32' E 009°58'0 0.0
2016-Aug-17 09:33N 53°32' E 009°58'0 0.0
2016-Aug-17 08:33N 53°32' E 009°58'3 2.9
2016-Aug-17 07:33N 53°33' E 009°53'9 8.7
2016-Aug-17 06:33N 53°34' E 009°38'9 9.0
2016-Aug-17 05:34N 53°42' E 009°30'9 8.7
2016-Aug-17 04:33N 53°49' E 009°22'8 8.0
2016-Aug-17 03:33N 53°53' E 009°10'1 1.4
2016-Aug-17 02:33N 53°54' E 009°10'8 8.4
2016-Aug-17 01:33N 54°01' E 009°18'29 7.0
2016-Aug-16 21:20N 54°21' E 009°55'6 7.2
2016-Aug-16 20:33N 54°22' E 010°05'2 2.2
2016-Aug-16 19:33N 54°22' E 010°08'1 1.2
2016-Aug-16 18:33N 54°22' E 010°10'9 9.4
2016-Aug-16 17:33N 54°30' E 010°19'1211.6
2016-Aug-16 16:30N 54°35' E 010°39'1111.7
2016-Aug-16 15:33N 54°36' E 010°58'1111.3
2016-Aug-16 14:33N 54°34' E 011°17'1211.7
2016-Aug-16 13:33N 54°30' E 011°36'1111.4
2016-Aug-16 12:33N 54°27' E 011°55'10 9.9
2016-Aug-16 11:33N 54°30' E 012°11'1210.4
2016-Aug-16 10:23N 54°40' E 012°23'1210.8
2016-Aug-16 09:17N 54°46' E 012°40'810.6
2016-Aug-16 08:33N 54°47' E 012°54'1110.9
2016-Aug-16 07:33N 54°47' E 013°12'1111.0
2016-Aug-16 06:33N 54°47' E 013°31'2210.9
2016-Aug-16 04:33N 54°43' E 014°09'2210.7
2016-Aug-16 02:30N 54°42' E 014°46'1211.0
2016-Aug-16 01:24N 54°44' E 015°07'  

Dump ship's entire track history